Time;durP1;ratioP1;P1;durP2;ratioP2;P2;SDS_P1;SDS_P2;PMS_P1;PMS_P2;Temp;Humidity;BMP_temperature;BMP_pressure;BME280_temperature;BME280_humidity;BME280_pressure;Samples;Min_cycle;Max_cycle;Signal;HPM_P1;HPM_P2
2022/04/29 00:01:29;;;;;;;16.63;8.73;;;5.60;99.90;;;;;;4995860;28;89612;-34
2022/04/29 00:03:55;;;;;;;18.23;9.63;;;5.60;99.90;;;;;;4979887;28;90101;-37
2022/04/29 00:06:20;;;;;;;13.27;7.88;;;5.60;99.90;;;;;;4980076;28;90462;-34
2022/04/29 00:08:46;;;;;;;15.88;9.27;;;5.60;99.90;;;;;;4979843;28;91361;-33
2022/04/29 00:11:12;;;;;;;14.13;8.75;;;5.60;99.90;;;;;;4979783;28;89488;-36
2022/04/29 00:13:38;;;;;;;13.88;9.55;;;5.50;99.90;;;;;;4979500;28;90073;-32
2022/04/29 00:16:05;;;;;;;15.88;8.82;;;5.50;99.90;;;;;;4979703;28;90903;-33
2022/04/29 00:18:31;;;;;;;12.60;8.65;;;5.50;99.90;;;;;;4980049;28;90443;-33
2022/04/29 00:20:57;;;;;;;13.23;8.80;;;5.50;99.90;;;;;;4979231;28;87659;-32
2022/04/29 00:23:22;;;;;;;13.05;7.78;;;5.40;99.90;;;;;;4980182;28;90047;-34
2022/04/29 00:25:48;;;;;;;21.98;8.95;;;5.40;99.90;;;;;;4978870;28;90090;-37
2022/04/29 00:28:14;;;;;;;15.43;8.93;;;5.40;99.90;;;;;;4980264;28;88461;-33
2022/04/29 00:30:39;;;;;;;17.38;8.70;;;5.40;99.90;;;;;;4979394;28;89849;-33
2022/04/29 00:33:05;;;;;;;10.82;7.97;;;5.40;99.90;;;;;;4979025;28;90075;-38
2022/04/29 00:35:31;;;;;;;12.55;9.02;;;5.40;99.90;;;;;;5001863;22;90934;-32
2022/04/29 00:37:57;;;;;;;12.05;8.63;;;5.40;99.90;;;;;;4939486;28;90582;-34
2022/04/29 00:40:28;;;;;;;15.43;8.88;;;5.50;99.90;;;;;;4940279;28;87696;-37
2022/04/29 00:42:54;;;;;;;13.20;8.55;;;5.50;99.90;;;;;;4939708;28;90088;-38
2022/04/29 00:45:22;;;;;;;10.73;7.57;;;5.40;99.90;;;;;;4940626;28;90476;-33
2022/04/29 00:47:49;;;;;;;16.08;9.75;;;5.40;99.90;;;;;;4939426;28;91411;-35
2022/04/29 00:50:24;;;;;;;18.60;9.95;;;5.40;99.90;;;;;;4940121;28;90410;-33
2022/04/29 00:52:52;;;;;;;24.15;9.82;;;5.40;99.90;;;;;;4940479;28;90050;-33
2022/04/29 00:55:19;;;;;;;10.93;8.73;;;5.40;99.90;;;;;;4940854;28;89424;-33
2022/04/29 00:57:50;;;;;;;13.00;9.85;;;5.40;99.90;;;;;;4939402;28;89693;-34
2022/04/29 01:00:18;;;;;;;12.10;8.85;;;5.40;99.90;;;;;;4940103;28;89797;-36
2022/04/29 01:02:46;;;;;;;20.60;8.70;;;5.30;99.90;;;;;;4938867;28;90476;-34
2022/04/29 01:05:14;;;;;;;9.88;8.85;;;5.20;99.90;;;;;;4939520;28;90029;-35
2022/04/29 01:07:41;;;;;;;14.90;8.82;;;5.30;99.90;;;;;;4939549;28;89507;-34
2022/04/29 01:10:10;;;;;;;23.95;11.00;;;5.30;99.90;;;;;;4940544;28;88772;-36
2022/04/29 01:12:37;;;;;;;15.77;9.73;;;5.30;99.90;;;;;;4938917;28;91124;-33
2022/04/29 01:15:06;;;;;;;14.48;9.57;;;5.20;99.90;;;;;;4939819;28;89835;-33
2022/04/29 01:17:32;;;;;;;;;;;5.20;99.90;;;;;;4940195;28;91259;-34
2022/04/29 01:20:06;;;;;;;18.13;9.48;;;5.20;99.90;;;;;;4941664;28;90236;-33
2022/04/29 01:22:32;;;;;;;14.55;9.00;;;5.20;99.90;;;;;;4939413;28;90298;-35
2022/04/29 01:24:58;;;;;;;16.15;7.75;;;5.10;99.90;;;;;;4939109;28;90516;-36
2022/04/29 01:27:24;;;;;;;20.75;10.13;;;5.00;99.90;;;;;;4939450;28;91098;-36
2022/04/29 01:30:00;;;;;;;16.05;8.82;;;5.00;99.90;;;;;;4938516;28;89559;-33
2022/04/29 01:32:26;;;;;;;12.30;9.10;;;5.10;99.90;;;;;;4939655;28;90232;-35
2022/04/29 01:34:52;;;;;;;13.27;8.57;;;5.10;99.90;;;;;;4939083;28;89291;-35
2022/04/29 01:37:18;;;;;;;20.20;9.93;;;5.10;99.90;;;;;;4938994;28;89807;-33
2022/04/29 01:39:43;;;;;;;16.88;8.90;;;5.00;99.90;;;;;;4939799;28;89368;-36
2022/04/29 01:42:09;;;;;;;12.10;9.00;;;5.00;99.90;;;;;;4939391;28;90103;-33
2022/04/29 01:44:34;;;;;;;10.45;8.50;;;4.90;99.90;;;;;;4939512;28;92122;-36
2022/04/29 01:47:00;;;;;;;18.17;9.23;;;4.80;99.90;;;;;;4938962;28;89516;-35
2022/04/29 01:49:26;;;;;;;9.95;7.65;;;4.70;99.90;;;;;;4938855;28;90216;-36
2022/04/29 01:51:54;;;;;;;15.77;9.48;;;4.60;99.90;;;;;;4938766;28;90354;-34
2022/04/29 01:54:19;;;;;;;16.00;10.35;;;4.50;99.90;;;;;;4939192;28;89836;-34
2022/04/29 01:56:47;;;;;;;14.82;9.93;;;4.40;99.90;;;;;;4938801;28;89442;-33
2022/04/29 01:59:13;;;;;;;14.05;8.73;;;4.40;99.90;;;;;;4943033;28;89352;-32
2022/04/29 02:01:38;;;;;;;23.38;10.48;;;4.30;99.90;;;;;;4942064;28;90289;-34
2022/04/29 02:04:05;;;;;;;15.90;9.30;;;4.40;99.90;;;;;;4942415;28;89773;-33
2022/04/29 02:06:30;;;;;;;15.55;9.85;;;4.30;99.90;;;;;;4942964;28;89272;-33
2022/04/29 02:08:56;;;;;;;11.35;9.23;;;4.30;99.90;;;;;;4942331;28;88777;-35
2022/04/29 02:11:22;;;;;;;18.73;10.88;;;4.30;99.90;;;;;;4942427;28;90242;-37
2022/04/29 02:13:48;;;;;;;16.77;10.45;;;4.30;99.90;;;;;;4940993;28;90614;-35
2022/04/29 02:16:14;;;;;;;19.05;9.77;;;4.30;99.90;;;;;;4941955;28;90656;-36
2022/04/29 02:18:41;;;;;;;12.85;8.60;;;4.30;99.90;;;;;;4942982;28;88083;-33
2022/04/29 02:21:07;;;;;;;11.10;8.75;;;4.30;99.90;;;;;;4941994;28;90335;-31
2022/04/29 02:23:33;;;;;;;15.77;9.45;;;4.20;99.90;;;;;;4942628;28;89696;-33
2022/04/29 02:25:59;;;;;;;11.65;9.73;;;4.20;99.90;;;;;;4941944;28;89178;-33
2022/04/29 02:28:25;;;;;;;19.83;9.35;;;4.20;99.90;;;;;;4941975;28;88684;-37
2022/04/29 02:30:51;;;;;;;14.45;8.75;;;4.20;99.90;;;;;;4942469;28;90408;-32
2022/04/29 02:33:16;;;;;;;19.73;9.27;;;4.20;99.90;;;;;;4942292;28;89738;-36
2022/04/29 02:35:42;;;;;;;9.55;8.65;;;4.20;99.90;;;;;;4941383;28;89977;-33
2022/04/29 02:38:07;;;;;;;11.35;8.88;;;4.20;99.90;;;;;;4941525;28;88978;-33
2022/04/29 02:40:33;;;;;;;11.23;8.93;;;4.20;99.90;;;;;;4942438;28;89938;-34
2022/04/29 02:42:58;;;;;;;13.27;9.80;;;4.30;99.90;;;;;;4924760;28;91495;-32
2022/04/29 02:45:24;;;;;;;11.07;7.90;;;4.30;99.90;;;;;;4941216;28;89604;-32
2022/04/29 02:47:50;;;;;;;11.57;8.43;;;4.30;99.90;;;;;;4941881;28;88372;-35
2022/04/29 02:50:15;;;;;;;14.93;9.07;;;4.30;99.90;;;;;;4941359;28;90495;-36
2022/04/29 02:52:41;;;;;;;11.85;8.95;;;4.30;99.90;;;;;;4941883;28;89534;-35
2022/04/29 02:55:07;;;;;;;15.10;10.32;;;4.40;99.90;;;;;;4942479;28;90826;-34
2022/04/29 02:57:33;;;;;;;18.77;10.30;;;4.30;99.90;;;;;;4941055;28;90566;-38
2022/04/29 02:59:58;;;;;;;14.15;9.90;;;4.30;99.90;;;;;;4941137;28;90287;-32
2022/04/29 03:02:24;;;;;;;21.20;10.40;;;4.40;99.90;;;;;;4941551;28;91332;-32
2022/04/29 03:04:49;;;;;;;13.02;9.35;;;4.40;99.90;;;;;;4940772;28;91414;-33
2022/04/29 03:07:15;;;;;;;16.33;10.07;;;4.40;99.90;;;;;;4941413;28;89703;-34
2022/04/29 03:09:41;;;;;;;17.05;10.75;;;4.40;99.90;;;;;;4939844;28;90418;-35
2022/04/29 03:12:12;;;;;;;19.65;9.75;;;4.40;99.90;;;;;;4940744;28;89922;-33
2022/04/29 03:14:38;;;;;;;13.00;9.82;;;4.40;99.90;;;;;;4941467;28;90035;-34
2022/04/29 03:17:04;;;;;;;18.83;9.52;;;4.40;99.90;;;;;;4941571;28;88883;-36
2022/04/29 03:19:30;;;;;;;18.83;9.95;;;4.40;99.90;;;;;;4942114;28;90223;-32
2022/04/29 03:21:55;;;;;;;9.43;8.43;;;4.50;99.90;;;;;;4941742;28;88950;-32
2022/04/29 03:24:21;;;;;;;16.02;10.10;;;4.40;99.90;;;;;;4941246;28;88651;-38
2022/04/29 03:26:47;;;;;;;19.50;10.95;;;4.40;99.90;;;;;;4940548;28;89309;-33
2022/04/29 03:29:13;;;;;;;19.30;11.13;;;4.40;99.90;;;;;;4940508;28;90404;-35
2022/04/29 03:31:38;;;;;;;11.73;9.27;;;4.40;99.90;;;;;;4923235;28;89750;-34
2022/04/29 03:34:04;;;;;;;11.32;8.90;;;4.40;99.90;;;;;;4940886;28;89622;-35
2022/04/29 03:36:30;;;;;;;17.85;12.18;;;4.50;99.90;;;;;;4940533;28;89576;-33
2022/04/29 03:38:56;;;;;;;16.80;9.70;;;4.40;99.90;;;;;;4940396;28;90141;-33
2022/04/29 03:41:22;;;;;;;21.00;11.43;;;4.50;99.90;;;;;;4940789;28;88809;-33
2022/04/29 03:43:48;;;;;;;17.90;11.77;;;4.50;99.90;;;;;;4940874;28;89679;-35
2022/04/29 03:46:15;;;;;;;18.55;10.35;;;4.40;99.90;;;;;;4940627;28;89660;-32
2022/04/29 03:51:25;;;;;;;15.95;11.27;;;4.40;99.90;;;;;;4941090;28;90886;-37
2022/04/29 03:53:50;;;;;;;19.02;11.23;;;4.50;99.90;;;;;;4939690;28;90886;-36
2022/04/29 03:56:17;;;;;;;17.17;10.73;;;4.50;99.90;;;;;;4941242;28;87503;-33
2022/04/29 03:58:43;;;;;;;23.23;12.60;;;4.50;99.90;;;;;;4939634;28;91408;-33
2022/04/29 04:01:11;;;;;;;15.60;12.18;;;4.50;99.90;;;;;;4939995;28;89172;-32
2022/04/29 04:03:37;;;;;;;24.10;11.70;;;4.40;99.90;;;;;;4940219;28;89594;-37
2022/04/29 04:08:47;;;;;;;19.35;11.50;;;4.30;99.90;;;;;;4939420;28;90402;-32
2022/04/29 04:11:12;;;;;;;17.73;11.43;;;4.30;99.90;;;;;;4940125;28;93913;-35
2022/04/29 04:13:38;;;;;;;15.70;10.63;;;4.20;99.90;;;;;;4939910;28;90318;-36
2022/04/29 04:16:04;;;;;;;22.83;10.40;;;4.20;99.90;;;;;;4939798;28;89124;-34
2022/04/29 04:18:29;;;;;;;14.02;11.38;;;4.20;99.90;;;;;;4940404;28;90129;-32
2022/04/29 04:20:55;;;;;;;17.92;10.13;;;4.20;99.90;;;;;;4939005;28;89670;-33
2022/04/29 04:23:20;;;;;;;18.23;11.93;;;4.10;99.90;;;;;;4939538;28;90371;-34
2022/04/29 04:25:46;;;;;;;16.38;10.70;;;4.10;99.90;;;;;;4939593;28;88326;-31
2022/04/29 04:28:13;;;;;;;14.00;11.70;;;4.10;99.90;;;;;;4940191;28;89901;-36
2022/04/29 04:30:42;;;;;;;19.23;10.95;;;4.20;99.90;;;;;;4939530;28;90636;-34
2022/04/29 04:33:07;;;;;;;21.05;10.93;;;4.30;99.90;;;;;;4939316;28;89817;-31
2022/04/29 04:35:33;;;;;;;16.77;11.10;;;4.20;99.90;;;;;;4939679;28;88503;-37
2022/04/29 04:37:58;;;;;;;14.95;12.68;;;4.20;99.90;;;;;;4939383;28;90179;-36
2022/04/29 04:40:24;;;;;;;18.00;11.20;;;4.30;99.90;;;;;;4938985;28;90565;-36
2022/04/29 04:42:50;;;;;;;17.65;11.50;;;4.30;99.90;;;;;;4922315;28;91473;-32
2022/04/29 04:45:15;;;;;;;19.88;12.13;;;4.30;99.90;;;;;;4939321;28;90071;-33
2022/04/29 04:47:41;;;;;;;13.82;11.50;;;4.40;99.90;;;;;;4939530;28;91533;-33
2022/04/29 04:50:07;;;;;;;22.13;12.27;;;4.40;99.90;;;;;;4939232;28;89481;-32
2022/04/29 04:52:33;;;;;;;13.52;10.85;;;4.50;99.90;;;;;;4939489;28;89545;-33
2022/04/29 04:55:02;;;;;;;18.17;11.63;;;4.50;99.90;;;;;;4939708;28;87702;-34
2022/04/29 04:57:28;;;;;;;16.15;12.10;;;4.60;99.90;;;;;;4939465;28;90281;-33
2022/04/29 04:59:53;;;;;;;18.20;11.02;;;4.70;99.90;;;;;;4939120;28;90056;-33
2022/04/29 05:02:19;;;;;;;15.68;11.18;;;4.80;99.90;;;;;;4939775;28;89809;-33
2022/04/29 05:04:44;;;;;;;19.05;12.23;;;4.90;99.90;;;;;;4938584;28;88561;-34
2022/04/29 05:07:10;;;;;;;20.05;12.88;;;5.10;99.90;;;;;;4939354;28;89737;-36
2022/04/29 05:09:35;;;;;;;16.02;11.75;;;5.20;99.90;;;;;;4938289;28;90129;-36
2022/04/29 05:12:01;;;;;;;23.40;12.57;;;5.20;99.90;;;;;;4939386;28;90242;-38
2022/04/29 05:14:27;;;;;;;20.20;12.38;;;5.20;99.90;;;;;;4939541;28;89379;-34
2022/04/29 05:16:52;;;;;;;18.65;12.10;;;5.20;99.90;;;;;;4938663;28;90316;-38
2022/04/29 05:19:18;;;;;;;24.13;13.85;;;5.30;99.90;;;;;;4939408;28;89584;-34
2022/04/29 05:21:43;;;;;;;14.27;11.63;;;5.30;99.90;;;;;;4939029;28;89875;-31
2022/04/29 05:24:09;;;;;;;13.55;11.90;;;5.40;99.90;;;;;;4939783;28;88917;-34
2022/04/29 05:26:34;;;;;;;23.35;13.25;;;5.50;99.90;;;;;;4938506;28;91163;-36
2022/04/29 05:29:00;;;;;;;22.63;13.68;;;5.60;99.90;;;;;;4938378;28;90700;-37
2022/04/29 05:31:26;;;;;;;14.77;12.98;;;5.70;99.90;;;;;;4939484;28;90602;-33
2022/04/29 05:33:51;;;;;;;18.48;12.52;;;5.70;99.90;;;;;;4941793;28;89589;-38
2022/04/29 05:36:17;;;;;;;20.83;12.65;;;5.80;99.90;;;;;;4942344;28;91192;-32
2022/04/29 05:44:12;;;;;;;16.98;11.77;;;6.30;99.90;;;;;;4942303;28;89776;-36
2022/04/29 05:46:38;;;;;;;19.73;12.52;;;6.50;99.90;;;;;;4942068;28;89258;-37
2022/04/29 05:49:04;;;;;;;21.58;12.07;;;6.60;99.90;;;;;;4942209;28;89873;-33
2022/04/29 05:51:30;;;;;;;29.27;13.50;;;6.70;99.90;;;;;;4941555;28;89499;-32
2022/04/29 05:53:55;;;;;;;18.30;12.05;;;6.80;99.90;;;;;;4941763;28;90156;-35
2022/04/29 05:56:21;;;;;;;26.67;12.23;;;6.90;99.90;;;;;;4947415;28;90355;-34
2022/04/29 05:58:46;;;;;;;26.92;12.57;;;7.10;99.90;;;;;;4954960;28;88400;-33
2022/04/29 06:01:12;;;;;;;17.70;11.52;;;7.30;99.90;;;;;;4941866;28;89695;-34
2022/04/29 06:03:38;;;;;;;16.33;12.15;;;7.30;99.90;;;;;;4923616;28;89675;-34
2022/04/29 06:06:04;;;;;;;24.13;12.13;;;7.30;99.90;;;;;;4941879;28;90153;-33
2022/04/29 06:08:29;;;;;;;14.98;10.35;;;7.40;99.90;;;;;;4923327;28;88632;-33
2022/04/29 06:10:55;;;;;;;20.20;12.02;;;7.50;99.90;;;;;;4942783;28;89433;-31
2022/04/29 06:13:21;;;;;;;19.70;11.55;;;7.70;99.90;;;;;;4942011;28;89308;-35
2022/04/29 06:15:46;;;;;;;19.05;11.05;;;7.70;99.90;;;;;;4941609;28;90424;-34
2022/04/29 06:18:12;;;;;;;19.50;11.70;;;7.80;99.90;;;;;;4941400;28;91949;-34
2022/04/29 06:20:37;;;;;;;17.27;10.90;;;7.90;99.90;;;;;;4940835;28;89116;-33
2022/04/29 06:23:03;;;;;;;17.23;10.48;;;7.90;99.90;;;;;;4942787;28;89049;-33
2022/04/29 06:25:28;;;;;;;14.07;9.70;;;7.90;99.90;;;;;;4944255;28;88786;-35
2022/04/29 06:27:54;;;;;;;15.30;10.10;;;8.00;99.90;;;;;;4960500;28;89154;-42
2022/04/29 06:30:20;;;;;;;10.40;8.68;;;8.00;99.90;;;;;;4958641;28;89968;-33
2022/04/29 06:32:45;;;;;;;13.00;7.38;;;8.10;99.90;;;;;;4960536;28;89904;-33
2022/04/29 06:35:11;;;;;;;11.40;9.30;;;8.10;99.90;;;;;;4961464;28;89792;-32
2022/04/29 06:37:37;;;;;;;12.50;9.32;;;8.10;99.90;;;;;;4910100;28;89426;-34
2022/04/29 06:40:06;;;;;;;9.45;8.32;;;8.20;99.90;;;;;;4931479;28;88857;-35
2022/04/29 06:42:41;;;;;;;15.80;9.45;;;8.20;99.90;;;;;;4942001;28;90144;-32
2022/04/29 06:45:08;;;;;;;12.70;10.02;;;8.20;99.90;;;;;;4942128;28;90515;-31
2022/04/29 06:47:34;;;;;;;16.40;11.40;;;8.20;99.90;;;;;;4941132;28;90075;-32
2022/04/29 06:49:59;;;;;;;21.23;11.90;;;8.20;99.90;;;;;;4941499;28;89420;-33
2022/04/29 06:52:25;;;;;;;16.58;10.93;;;8.30;99.90;;;;;;4917106;28;89793;-32
2022/04/29 06:54:50;;;;;;;14.13;9.43;;;8.30;99.90;;;;;;4900506;28;92407;-32
2022/04/29 06:57:16;;;;;;;12.20;10.07;;;8.40;99.90;;;;;;4900644;28;96345;-34
2022/04/29 06:59:41;;;;;;;15.40;9.45;;;8.40;99.90;;;;;;4937225;28;89685;-33
2022/04/29 07:02:07;;;;;;;10.15;8.80;;;8.40;99.90;;;;;;4939825;28;88882;-34
2022/04/29 07:04:34;;;;;;;13.75;8.45;;;8.40;99.90;;;;;;4939770;28;90749;-34
2022/04/29 07:07:00;;;;;;;11.30;9.60;;;8.50;99.90;;;;;;4939590;28;91493;-33
2022/04/29 07:09:26;;;;;;;15.25;9.57;;;8.50;99.90;;;;;;4939754;28;90320;-33
2022/04/29 07:11:51;;;;;;;14.65;10.00;;;8.50;99.90;;;;;;4940623;28;89379;-32
2022/04/29 07:14:17;;;;;;;9.40;8.40;;;8.50;99.90;;;;;;4939678;28;89443;-36
2022/04/29 07:16:43;;;;;;;11.60;7.50;;;8.60;99.90;;;;;;4939512;28;90366;-34
2022/04/29 07:19:09;;;;;;;11.68;7.63;;;8.60;99.90;;;;;;4941561;28;90015;-34
2022/04/29 07:21:35;;;;;;;10.70;7.97;;;8.60;99.90;;;;;;4924025;28;87779;-35
2022/04/29 07:24:00;;;;;;;10.40;7.65;;;8.60;99.90;;;;;;4941610;28;90180;-33
2022/04/29 07:26:26;;;;;;;13.98;8.52;;;8.60;99.90;;;;;;4940751;28;90069;-32
2022/04/29 07:28:51;;;;;;;10.95;7.40;;;8.60;99.90;;;;;;4940744;28;88968;-34
2022/04/29 07:31:17;;;;;;;13.45;7.90;;;8.60;99.90;;;;;;4941076;28;88177;-34
2022/04/29 07:33:42;;;;;;;12.70;8.68;;;8.60;99.90;;;;;;4940929;28;90367;-32
2022/04/29 07:41:46;;;;;;;8.88;7.30;;;8.60;99.90;;;;;;4941326;28;89706;-38
2022/04/29 07:44:13;;;;;;;8.82;7.95;;;8.70;99.90;;;;;;4940768;28;90390;-37
2022/04/29 07:46:40;;;;;;;17.58;6.55;;;8.80;99.90;;;;;;4941009;28;89605;-33
2022/04/29 07:49:06;;;;;;;9.50;7.00;;;8.90;99.90;;;;;;4941432;28;89507;-33
2022/04/29 07:51:32;;;;;;;9.65;6.63;;;8.90;99.90;;;;;;4941363;28;89544;-33
2022/04/29 07:53:57;;;;;;;8.63;6.60;;;8.90;99.90;;;;;;4940152;28;90293;-38
2022/04/29 07:56:23;;;;;;;10.95;7.90;;;9.00;99.90;;;;;;4939890;28;90570;-32
2022/04/29 07:58:48;;;;;;;14.50;7.90;;;9.00;99.90;;;;;;4940087;28;90666;-35
2022/04/29 08:01:15;;;;;;;9.55;6.47;;;9.20;99.90;;;;;;4941154;28;89048;-33
2022/04/29 08:03:42;;;;;;;8.23;6.18;;;9.40;99.90;;;;;;4940469;28;91310;-35
2022/04/29 08:06:08;;;;;;;12.10;6.45;;;9.50;99.90;;;;;;4939984;28;89774;-33
2022/04/29 08:08:34;;;;;;;10.85;7.57;;;9.60;99.90;;;;;;4940674;28;89412;-33
2022/04/29 08:11:00;;;;;;;8.23;7.43;;;9.50;99.90;;;;;;4940682;28;88214;-33
2022/04/29 08:13:27;;;;;;;8.07;6.57;;;9.50;99.90;;;;;;4941657;28;90686;-35
2022/04/29 08:15:53;;;;;;;10.60;7.85;;;9.50;99.90;;;;;;4941366;28;89402;-36
2022/04/29 08:18:19;;;;;;;10.75;7.00;;;9.50;99.90;;;;;;4940492;28;89566;-33
2022/04/29 08:20:45;;;;;;;8.15;7.40;;;9.50;99.90;;;;;;4940398;28;89253;-37
2022/04/29 08:23:10;;;;;;;12.18;7.35;;;9.70;99.90;;;;;;4940105;28;91141;-34
2022/04/29 08:25:36;;;;;;;7.32;6.70;;;9.60;99.90;;;;;;4940379;28;89908;-33
2022/04/29 08:28:03;;;;;;;11.07;7.78;;;9.90;99.90;;;;;;4940805;28;90381;-36
2022/04/29 08:30:30;;;;;;;11.27;8.10;;;10.10;99.90;;;;;;4940008;28;88785;-35
2022/04/29 08:32:57;;;;;;;9.77;6.55;;;10.10;99.90;;;;;;4939707;28;90604;-32
2022/04/29 08:35:22;;;;;;;14.13;7.05;;;9.90;99.90;;;;;;4940361;28;89949;-34
2022/04/29 08:37:49;;;;;;;9.38;7.22;;;9.90;99.90;;;;;;4940106;28;91070;-33
2022/04/29 08:40:16;;;;;;;8.05;6.65;;;9.90;99.90;;;;;;4940287;28;88674;-33
2022/04/29 08:42:42;;;;;;;9.85;7.47;;;9.90;99.90;;;;;;4940159;28;90779;-36
2022/04/29 08:45:10;;;;;;;10.98;7.22;;;9.90;99.90;;;;;;4939986;28;90849;-33
2022/04/29 08:47:38;;;;;;;10.65;6.97;;;10.10;99.90;;;;;;4939623;28;90774;-36
2022/04/29 08:50:09;;;;;;;11.93;7.17;;;10.20;99.90;;;;;;4940693;28;89878;-37
2022/04/29 08:52:35;;;;;;;9.70;6.75;;;10.30;99.90;;;;;;4939696;28;90134;-34
2022/04/29 09:00:32;;;;;;;12.30;6.43;;;11.00;99.90;;;;;;4940331;28;88997;-35
2022/04/29 09:03:00;;;;;;;12.50;7.88;;;10.80;99.90;;;;;;4941268;28;90537;-33
2022/04/29 09:05:26;;;;;;;17.03;6.70;;;11.60;99.90;;;;;;4940358;28;89806;-33
2022/04/29 09:08:03;;;;;;;14.13;6.45;;;11.70;99.90;;;;;;4942084;28;89703;-33
2022/04/29 09:10:36;;;;;;;7.15;5.60;;;11.70;99.90;;;;;;4943181;28;89790;-37
2022/04/29 09:13:17;;;;;;;12.65;6.35;;;11.70;99.90;;;;;;4942764;28;91428;-33
2022/04/29 09:15:47;;;;;;;8.80;5.28;;;11.60;99.90;;;;;;4943668;28;89457;-32
2022/04/29 09:18:14;;;;;;;9.27;5.78;;;11.60;99.90;;;;;;4943009;28;88767;-36
2022/04/29 09:20:40;;;;;;;10.45;5.63;;;11.60;99.90;;;;;;4942841;28;88381;-34
2022/04/29 09:23:08;;;;;;;13.07;6.40;;;11.80;99.90;;;;;;4943144;28;90327;-37
2022/04/29 09:25:37;;;;;;;9.07;6.33;;;11.60;99.90;;;;;;4943704;28;88608;-33
2022/04/29 09:28:05;;;;;;;7.43;5.40;;;11.60;99.90;;;;;;4943848;28;89868;-32
2022/04/29 09:30:37;;;;;;;10.43;5.65;;;11.70;99.90;;;;;;4943414;28;89095;-33
2022/04/29 09:33:03;;;;;;;12.30;5.72;;;11.80;99.90;;;;;;4943154;28;90113;-35
2022/04/29 09:35:40;;;;;;;11.52;5.65;;;12.00;99.90;;;;;;4941960;28;92149;-37
2022/04/29 09:40:51;;;;;;;11.43;5.53;;;12.10;99.90;;;;;;4943341;28;90611;-32
2022/04/29 09:43:21;;;;;;;5.80;5.20;;;11.70;99.90;;;;;;4943207;28;92475;-35
2022/04/29 09:45:47;;;;;;;6.97;5.63;;;12.00;99.90;;;;;;4942687;28;90087;-32
2022/04/29 09:48:13;;;;;;;10.45;5.72;;;12.30;99.90;;;;;;4942443;28;92639;-35
2022/04/29 09:50:50;;;;;;;7.90;5.45;;;12.30;99.90;;;;;;4943279;28;89204;-37
2022/04/29 09:53:21;;;;;;;5.17;3.83;;;12.50;99.90;;;;;;4941533;28;90383;-33
2022/04/29 09:56:06;;;;;;;7.43;5.43;;;12.20;99.90;;;;;;4942416;28;88924;-34
2022/04/29 09:58:32;;;;;;;6.45;5.50;;;11.90;99.90;;;;;;4941903;28;89664;-35
2022/04/29 10:01:00;;;;;;;6.93;5.15;;;12.00;99.90;;;;;;4941888;28;90117;-34
2022/04/29 10:03:26;;;;;;;5.97;4.88;;;12.10;99.90;;;;;;4943770;28;90435;-33
2022/04/29 10:05:53;;;;;;;6.22;5.40;;;12.10;99.90;;;;;;4942063;28;89683;-34
2022/04/29 10:08:19;;;;;;;9.60;5.78;;;12.10;99.90;;;;;;4940900;28;89628;-34
2022/04/29 10:10:47;;;;;;;6.65;5.82;;;12.00;99.90;;;;;;4940898;28;88329;-36
2022/04/29 10:13:14;;;;;;;7.63;5.03;;;12.20;99.90;;;;;;4934336;28;90385;-37
2022/04/29 10:15:41;;;;;;;9.05;5.15;;;12.60;99.90;;;;;;4937962;28;89782;-36
2022/04/29 10:23:39;;;;;;;9.68;5.15;;;12.90;99.90;;;;;;4938168;28;90614;-33
2022/04/29 10:26:05;;;;;;;4.60;4.00;;;12.30;98.60;;;;;;4938107;28;90707;-36
2022/04/29 10:28:31;;;;;;;7.88;4.55;;;12.60;99.90;;;;;;4939360;28;90302;-33
2022/04/29 10:31:02;;;;;;;6.03;5.43;;;12.70;99.90;;;;;;4940384;28;90079;-36
2022/04/29 10:33:27;;;;;;;9.60;5.70;;;12.50;99.90;;;;;;4940351;28;90312;-32
2022/04/29 10:35:56;;;;;;;7.47;5.22;;;12.50;99.90;;;;;;4939038;28;89854;-36
2022/04/29 10:38:30;;;;;;;10.18;5.53;;;12.30;99.90;;;;;;4939876;28;89479;-38
2022/04/29 10:41:17;;;;;;;9.20;5.07;;;12.20;99.90;;;;;;4940160;28;89433;-33
2022/04/29 10:43:52;;;;;;;9.30;5.82;;;11.90;99.90;;;;;;4939939;28;90256;-34
2022/04/29 10:46:29;;;;;;;6.78;5.63;;;11.90;99.90;;;;;;4940009;28;89630;-38
2022/04/29 10:48:55;;;;;;;7.75;6.25;;;12.00;99.90;;;;;;4939915;28;90154;-34
2022/04/29 10:51:27;;;;;;;6.30;5.60;;;12.10;99.90;;;;;;4939209;28;91165;-35
2022/04/29 10:53:55;;;;;;;5.63;4.93;;;12.20;99.90;;;;;;4934985;28;90339;-34
2022/04/29 10:56:32;;;;;;;7.45;5.68;;;12.00;99.90;;;;;;4939423;28;90262;-35
2022/04/29 10:59:04;;;;;;;9.25;5.63;;;11.80;99.90;;;;;;4939380;28;89611;-33
2022/04/29 11:01:34;;;;;;;9.35;5.32;;;11.70;99.90;;;;;;4940361;28;87924;-33
2022/04/29 11:04:04;;;;;;;18.70;5.40;;;11.90;99.90;;;;;;4939812;28;90453;-32
2022/04/29 11:06:36;;;;;;;7.68;5.35;;;11.80;99.90;;;;;;4938239;28;89528;-33
2022/04/29 11:09:03;;;;;;;5.30;4.90;;;11.90;99.90;;;;;;4938537;28;89960;-36
2022/04/29 11:11:42;;;;;;;5.82;4.35;;;11.80;99.90;;;;;;4940055;28;89519;-33
2022/04/29 11:14:10;;;;;;;6.03;5.43;;;11.90;99.90;;;;;;4939702;28;91466;-35
2022/04/29 11:16:56;;;;;;;9.77;5.43;;;11.70;99.90;;;;;;4939008;28;91047;-33
2022/04/29 11:19:34;;;;;;;5.55;5.10;;;11.90;99.90;;;;;;4939165;28;90552;-32
2022/04/29 11:24:49;;;;;;;7.57;5.37;;;12.00;99.90;;;;;;4938979;28;89399;-37
2022/04/29 11:27:27;;;;;;;10.63;6.10;;;11.70;99.90;;;;;;4940149;28;90437;-33
2022/04/29 11:29:56;;;;;;;5.60;5.15;;;11.80;99.90;;;;;;4938014;28;88383;-33
2022/04/29 11:32:26;;;;;;;8.38;6.00;;;11.70;99.90;;;;;;4939541;28;87944;-33
2022/04/29 11:34:58;;;;;;;11.27;8.20;;;11.90;99.90;;;;;;4938829;28;90243;-33
2022/04/29 11:37:33;;;;;;;13.27;8.27;;;11.80;99.90;;;;;;4939103;28;89627;-34
2022/04/29 11:40:10;;;;;;;22.10;19.77;;;11.70;99.90;;;;;;4939135;28;89466;-35
2022/04/29 11:42:36;;;;;;;11.70;7.13;;;11.70;99.90;;;;;;4937473;28;90519;-32
2022/04/29 11:45:09;;;;;;;6.55;5.55;;;11.80;99.90;;;;;;4939150;28;90513;-35
2022/04/29 11:47:36;;;;;;;5.95;5.03;;;11.80;99.90;;;;;;4938189;28;90183;-33
2022/04/29 11:50:03;;;;;;;8.70;7.30;;;11.80;99.90;;;;;;4939656;28;90095;-34
2022/04/29 11:52:30;;;;;;;9.32;7.80;;;11.90;99.90;;;;;;4939873;28;90124;-35
2022/04/29 11:55:17;;;;;;;7.20;5.67;;;12.00;99.90;;;;;;4937879;28;90229;-37
2022/04/29 11:57:44;;;;;;;6.75;6.07;;;12.20;99.90;;;;;;4938039;28;90020;-34
2022/04/29 12:00:21;;;;;;;6.30;5.70;;;11.80;99.90;;;;;;4938520;28;90496;-36
2022/04/29 12:02:47;;;;;;;7.63;6.65;;;12.10;99.90;;;;;;4939032;28;90045;-36
2022/04/29 12:05:13;;;;;;;6.25;5.65;;;12.20;99.90;;;;;;4938292;28;90341;-32
2022/04/29 12:07:43;;;;;;;6.57;5.95;;;12.10;99.90;;;;;;4937477;28;90581;-37
2022/04/29 12:10:27;;;;;;;9.88;6.43;;;12.10;99.90;;;;;;4937987;28;90633;-34
2022/04/29 12:12:58;;;;;;;14.23;6.07;;;11.80;99.90;;;;;;4938085;28;89626;-33
2022/04/29 12:15:37;;;;;;;11.30;7.35;;;11.80;99.90;;;;;;4938725;28;90274;-32
2022/04/29 12:18:07;;;;;;;9.45;6.68;;;11.80;99.90;;;;;;4938503;28;89628;-34
2022/04/29 12:20:33;;;;;;;8.27;6.75;;;11.80;99.90;;;;;;4938985;28;89605;-37
2022/04/29 12:23:11;;;;;;;6.45;5.82;;;11.90;99.90;;;;;;4937262;28;87868;-35
2022/04/29 12:25:42;;;;;;;8.82;6.57;;;11.80;99.90;;;;;;4938027;28;89528;-36
2022/04/29 12:28:16;;;;;;;9.75;6.50;;;11.60;99.90;;;;;;4937952;28;89739;-33
2022/04/29 12:36:48;;;;;;;7.50;6.30;;;12.00;99.90;;;;;;4969924;22;92001;-33
2022/04/29 12:39:15;;;;;;;14.02;8.13;;;11.90;99.90;;;;;;4943428;28;89800;-33
2022/04/29 12:41:42;;;;;;;8.35;7.53;;;12.30;99.90;;;;;;4955394;28;90278;-36
2022/04/29 12:44:10;;;;;;;8.52;7.28;;;12.10;99.90;;;;;;4957457;28;88718;-33
2022/04/29 12:46:36;;;;;;;8.70;7.70;;;12.20;99.90;;;;;;4957721;28;89759;-35
2022/04/29 12:49:02;;;;;;;11.15;7.45;;;12.10;99.90;;;;;;4957435;28;90130;-32
2022/04/29 12:51:35;;;;;;;11.77;8.02;;;11.80;99.90;;;;;;4957521;28;88837;-36
2022/04/29 12:54:10;;;;;;;13.02;7.45;;;11.90;99.90;;;;;;4957459;28;89843;-36
2022/04/29 12:56:36;;;;;;;7.50;6.10;;;11.70;99.90;;;;;;4956961;28;90424;-37
2022/04/29 12:59:04;;;;;;;8.65;7.47;;;11.80;99.90;;;;;;4957049;28;90731;-37
2022/04/29 13:01:38;;;;;;;20.43;15.93;;;11.60;99.90;;;;;;4933648;28;91047;-34
2022/04/29 13:04:03;;;;;;;26.60;23.55;;;11.60;99.90;;;;;;4937278;28;87905;-36
2022/04/29 13:06:29;;;;;;;13.57;11.63;;;11.70;99.90;;;;;;4936155;28;90815;-35
2022/04/29 13:08:56;;;;;;;13.52;12.13;;;11.60;99.90;;;;;;4935737;28;89790;-37
2022/04/29 13:11:23;;;;;;;8.75;7.00;;;11.60;99.90;;;;;;4936970;28;89898;-36
2022/04/29 13:13:51;;;;;;;11.65;7.70;;;11.30;99.90;;;;;;4936944;28;89306;-34
2022/04/29 13:16:17;;;;;;;12.70;9.15;;;11.50;99.90;;;;;;4937363;28;89996;-36
2022/04/29 13:18:43;;;;;;;11.45;8.02;;;11.60;99.90;;;;;;4936644;28;90391;-34
2022/04/29 13:21:10;;;;;;;12.00;7.43;;;11.60;99.90;;;;;;4937145;28;89704;-34
2022/04/29 13:23:37;;;;;;;9.15;7.75;;;11.70;99.90;;;;;;4936307;28;88985;-33